Time;durP1;ratioP1;P1;durP2;ratioP2;P2;SDS_P1;SDS_P2;PMS_P1;PMS_P2;Temp;Humidity;BMP_temperature;BMP_pressure;BME280_temperature;BME280_humidity;BME280_pressure;Samples;Min_cycle;Max_cycle;Signal;HPM_P1;HPM_P2
2023/10/24 00:01:54;;;;;;;;;10.67;9.33;;;;;;;;5102304;27;45469;-75
2023/10/24 00:04:20;;;;;;;;;9.33;7.67;;;;;;;;5102020;27;45301;-75
2023/10/24 00:06:45;;;;;;;;;11.67;9.33;;;;;;;;5102099;27;46289;-76
2023/10/24 00:09:10;;;;;;;;;7.00;7.00;;;;;;;;5102164;27;45437;-75
2023/10/24 00:11:35;;;;;;;;;11.00;10.00;;;;;;;;5100834;27;45260;-75
2023/10/24 00:14:00;;;;;;;;;9.67;9.67;;;;;;;;5101992;27;45486;-76
2023/10/24 00:16:26;;;;;;;;;10.00;10.00;;;;;;;;5100407;27;47450;-75
2023/10/24 00:18:51;;;;;;;;;11.33;8.33;;;;;;;;5102039;27;45400;-75
2023/10/24 00:21:16;;;;;;;;;9.33;9.33;;;;;;;;5100641;27;45280;-75
2023/10/24 00:23:41;;;;;;;;;9.00;9.00;;;;;;;;5101877;27;45373;-75
2023/10/24 00:26:06;;;;;;;;;10.33;10.33;;;;;;;;5101844;27;45423;-75
2023/10/24 00:28:31;;;;;;;;;10.33;10.33;;;;;;;;5099728;27;45299;-75
2023/10/24 00:30:57;;;;;;;;;11.67;11.67;;;;;;;;5081530;28;45237;-75
2023/10/24 00:33:22;;;;;;;;;7.33;7.33;;;;;;;;5081092;28;45405;-75
2023/10/24 00:35:47;;;;;;;;;8.67;8.67;;;;;;;;5081090;28;45385;-75
2023/10/24 00:38:12;;;;;;;;;11.00;10.33;;;;;;;;5081298;28;45366;-76
2023/10/24 00:40:37;;;;;;;;;10.67;9.67;;;;;;;;5081382;28;45398;-75
2023/10/24 00:43:06;;;;;;;;;11.33;11.33;;;;;;;;5080830;28;45382;-75
2023/10/24 00:45:33;;;;;;;;;10.00;10.00;;;;;;;;5079725;28;47180;-75
2023/10/24 00:47:59;;;;;;;;;10.00;8.33;;;;;;;;5080465;28;45231;-76
2023/10/24 00:50:24;;;;;;;;;11.67;10.67;;;;;;;;5080996;28;45305;-75
2023/10/24 00:52:50;;;;;;;;;9.00;9.00;;;;;;;;5080971;28;45293;-76
2023/10/24 00:55:16;;;;;;;;;10.00;9.33;;;;;;;;5080839;28;46261;-75
2023/10/24 00:57:42;;;;;;;;;11.00;10.00;;;;;;;;5081063;28;45363;-76
2023/10/24 01:00:07;;;;;;;;;9.33;9.00;;;;;;;;5080967;28;45335;-75
2023/10/24 01:02:33;;;;;;;;;10.00;10.00;;;;;;;;5080602;28;45321;-76
2023/10/24 01:04:59;;;;;;;;;10.00;9.33;;;;;;;;5079010;28;47816;-75
2023/10/24 01:07:24;;;;;;;;;14.67;12.33;;;;;;;;5080175;28;45335;-75
2023/10/24 01:09:49;;;;;;;;;12.00;12.00;;;;;;;;5080702;28;45274;-75
2023/10/24 01:12:14;;;;;;;;;8.33;8.00;;;;;;;;5080638;28;45306;-75
2023/10/24 01:14:40;;;;;;;;;10.33;10.33;;;;;;;;5080374;28;45298;-75
2023/10/24 01:17:09;;;;;;;;;12.00;12.00;;;;;;;;5079320;28;45858;-75
2023/10/24 01:19:34;;;;;;;;;10.67;10.67;;;;;;;;5080811;28;45350;-75
2023/10/24 01:21:59;;;;;;;;;12.33;11.33;;;;;;;;5080420;28;45353;-75
2023/10/24 01:24:26;;;;;;;;;10.67;9.67;;;;;;;;5080416;28;45573;-76
2023/10/24 01:26:52;;;;;;;;;9.67;9.00;;;;;;;;5080586;28;45454;-75
2023/10/24 01:29:17;;;;;;;;;10.33;9.00;;;;;;;;5089042;27;45375;-74
2023/10/24 01:31:42;;;;;;;;;11.67;11.67;;;;;;;;5100596;27;45484;-76
2023/10/24 01:34:07;;;;;;;;;12.67;11.00;;;;;;;;5100755;27;46358;-74
2023/10/24 01:36:33;;;;;;;;;11.00;10.67;;;;;;;;5100618;27;45325;-75
2023/10/24 01:38:58;;;;;;;;;14.00;12.33;;;;;;;;5099676;27;45307;-75
2023/10/24 01:41:23;;;;;;;;;10.33;10.33;;;;;;;;5100691;27;45244;-75
2023/10/24 01:43:48;;;;;;;;;12.67;12.67;;;;;;;;5099148;27;47340;-75
2023/10/24 01:46:13;;;;;;;;;9.00;9.00;;;;;;;;5100299;27;45289;-76
2023/10/24 01:48:39;;;;;;;;;12.00;12.00;;;;;;;;5100790;27;45358;-75
2023/10/24 01:51:04;;;;;;;;;10.33;10.00;;;;;;;;5100460;27;45312;-75
2023/10/24 01:53:29;;;;;;;;;10.33;10.33;;;;;;;;5099694;27;46182;-75
2023/10/24 01:55:54;;;;;;;;;10.00;8.67;;;;;;;;5100538;27;45318;-76
2023/10/24 01:58:20;;;;;;;;;15.00;12.00;;;;;;;;5100694;27;45301;-76
2023/10/24 02:00:45;;;;;;;;;11.00;11.00;;;;;;;;5099010;27;46232;-76
2023/10/24 02:03:10;;;;;;;;;10.00;9.67;;;;;;;;5100405;27;45344;-76
2023/10/24 02:05:35;;;;;;;;;10.00;9.00;;;;;;;;5098861;27;46042;-75
2023/10/24 02:08:00;;;;;;;;;9.67;9.67;;;;;;;;5100532;27;45198;-76
2023/10/24 02:10:26;;;;;;;;;12.00;12.00;;;;;;;;5099023;27;47069;-75
2023/10/24 02:12:51;;;;;;;;;9.00;9.00;;;;;;;;5100203;27;46559;-75
2023/10/24 02:15:16;;;;;;;;;11.33;11.33;;;;;;;;5100348;27;45293;-76
2023/10/24 02:17:41;;;;;;;;;13.00;10.67;;;;;;;;5100208;27;45450;-76
2023/10/24 02:20:07;;;;;;;;;7.67;7.67;;;;;;;;5100181;27;45428;-75
2023/10/24 02:22:33;;;;;;;;;10.33;9.33;;;;;;;;5099925;27;47823;-75
2023/10/24 02:24:58;;;;;;;;;13.00;11.00;;;;;;;;5100137;27;45219;-75
2023/10/24 02:27:23;;;;;;;;;12.33;11.67;;;;;;;;5099022;27;45593;-76
2023/10/24 02:29:48;;;;;;;;;11.33;11.33;;;;;;;;5087105;27;45263;-76
2023/10/24 02:32:13;;;;;;;;;12.00;11.00;;;;;;;;5079272;28;45347;-75
2023/10/24 02:34:38;;;;;;;;;9.33;9.33;;;;;;;;5079464;28;45333;-75
2023/10/24 02:37:04;;;;;;;;;13.00;12.00;;;;;;;;5079689;28;45180;-75
2023/10/24 02:39:29;;;;;;;;;10.33;10.00;;;;;;;;5079453;28;45260;-76
2023/10/24 02:41:54;;;;;;;;;10.33;10.33;;;;;;;;5079544;28;46657;-75
2023/10/24 02:44:20;;;;;;;;;9.00;9.00;;;;;;;;5078100;28;45410;-75
2023/10/24 02:46:45;;;;;;;;;11.00;11.00;;;;;;;;5079267;28;45738;-75
2023/10/24 02:49:10;;;;;;;;;11.00;9.67;;;;;;;;5079231;28;45532;-76
2023/10/24 02:51:36;;;;;;;;;10.33;10.33;;;;;;;;5079335;28;46027;-76
2023/10/24 02:54:01;;;;;;;;;11.00;11.00;;;;;;;;5079245;28;45363;-75
2023/10/24 02:56:26;;;;;;;;;9.67;9.33;;;;;;;;5079513;28;45372;-76
2023/10/24 02:58:52;;;;;;;;;11.67;10.67;;;;;;;;5077976;28;45915;-76
2023/10/24 03:01:18;;;;;;;;;13.67;12.67;;;;;;;;5078974;28;45311;-75
2023/10/24 03:03:43;;;;;;;;;10.67;10.00;;;;;;;;5079245;28;45319;-75
2023/10/24 03:06:15;;;;;;;;;9.67;9.67;;;;;;;;5082186;28;45323;-75
2023/10/24 03:08:40;;;;;;;;;11.00;10.33;;;;;;;;5082552;28;45467;-75
2023/10/24 03:11:06;;;;;;;;;12.67;12.33;;;;;;;;5081144;28;47107;-75
2023/10/24 03:13:31;;;;;;;;;8.67;8.33;;;;;;;;5082602;28;45484;-75
2023/10/24 03:16:00;;;;;;;;;12.67;11.00;;;;;;;;5082701;28;45355;-76
2023/10/24 03:18:26;;;;;;;;;10.00;10.00;;;;;;;;5081311;28;46326;-76
2023/10/24 03:20:51;;;;;;;;;10.00;10.00;;;;;;;;5082280;28;45477;-75
2023/10/24 03:23:16;;;;;;;;;12.67;11.67;;;;;;;;5082593;28;45295;-75
2023/10/24 03:25:41;;;;;;;;;11.67;10.67;;;;;;;;5082626;28;45149;-75
2023/10/24 03:28:06;;;;;;;;;12.00;10.00;;;;;;;;5082430;28;45283;-76
2023/10/24 03:30:31;;;;;;;;;11.00;11.00;;;;;;;;5100975;27;46284;-76
2023/10/24 03:32:57;;;;;;;;;11.67;11.00;;;;;;;;5101093;27;45256;-75
2023/10/24 03:35:22;;;;;;;;;9.00;9.00;;;;;;;;5102831;27;45648;-76
2023/10/24 03:37:47;;;;;;;;;11.00;11.00;;;;;;;;5102803;27;45480;-76
2023/10/24 03:40:12;;;;;;;;;5.33;5.33;;;;;;;;5101172;27;48223;-75
2023/10/24 03:42:37;;;;;;;;;7.67;7.67;;;;;;;;5102662;27;45184;-75
2023/10/24 03:45:03;;;;;;;;;6.00;6.00;;;;;;;;5101220;27;45318;-75
2023/10/24 03:47:28;;;;;;;;;10.00;10.00;;;;;;;;5102189;27;45429;-76
2023/10/24 03:49:53;;;;;;;;;9.00;8.67;;;;;;;;5102530;27;46243;-75
2023/10/24 03:52:18;;;;;;;;;9.67;8.00;;;;;;;;5100856;27;45439;-75
2023/10/24 03:54:43;;;;;;;;;8.00;8.00;;;;;;;;5102524;27;45318;-75
2023/10/24 03:57:09;;;;;;;;;8.67;7.33;;;;;;;;5102443;27;45541;-75
2023/10/24 03:59:34;;;;;;;;;6.00;4.67;;;;;;;;5102372;27;45281;-76
2023/10/24 04:02:00;;;;;;;;;6.33;6.33;;;;;;;;5100793;27;45390;-75
2023/10/24 04:04:25;;;;;;;;;9.00;7.67;;;;;;;;5102276;27;45408;-75
2023/10/24 04:06:51;;;;;;;;;11.67;11.00;;;;;;;;5101997;27;45333;-75
2023/10/24 04:09:16;;;;;;;;;8.00;8.00;;;;;;;;5100683;27;48409;-76
2023/10/24 04:11:41;;;;;;;;;10.00;9.33;;;;;;;;5100919;27;45346;-75
2023/10/24 04:14:07;;;;;;;;;9.67;8.67;;;;;;;;5102177;27;45428;-75
2023/10/24 04:16:32;;;;;;;;;8.00;8.00;;;;;;;;5101281;27;45303;-75
2023/10/24 04:18:57;;;;;;;;;7.33;6.00;;;;;;;;5102052;27;45259;-75
2023/10/24 04:21:23;;;;;;;;;6.33;6.33;;;;;;;;5101979;27;45313;-75
2023/10/24 04:23:48;;;;;;;;;6.00;6.00;;;;;;;;5102121;27;45315;-75
2023/10/24 04:26:13;;;;;;;;;9.00;9.00;;;;;;;;5101946;27;45305;-75
2023/10/24 04:28:39;;;;;;;;;8.00;8.00;;;;;;;;5097222;27;46715;-75
2023/10/24 04:31:04;;;;;;;;;7.00;7.00;;;;;;;;5081221;28;45309;-75
2023/10/24 04:33:29;;;;;;;;;8.67;8.67;;;;;;;;5081522;28;45322;-74
2023/10/24 04:35:54;;;;;;;;;6.00;6.00;;;;;;;;5081133;28;45444;-75
2023/10/24 04:38:20;;;;;;;;;7.00;6.00;;;;;;;;5081305;28;45231;-75
2023/10/24 04:40:45;;;;;;;;;5.33;5.33;;;;;;;;5081202;28;45311;-75
2023/10/24 04:43:10;;;;;;;;;7.67;5.67;;;;;;;;5081391;28;45361;-75
2023/10/24 04:45:36;;;;;;;;;8.67;6.33;;;;;;;;5081178;28;45415;-74
2023/10/24 04:48:01;;;;;;;;;6.00;5.00;;;;;;;;5080432;28;46388;-75
2023/10/24 04:50:27;;;;;;;;;6.00;4.67;;;;;;;;5081029;28;45350;-75
2023/10/24 04:52:52;;;;;;;;;8.00;6.00;;;;;;;;5081081;28;45330;-75
2023/10/24 04:55:18;;;;;;;;;6.33;6.33;;;;;;;;5081041;28;45451;-75
2023/10/24 04:57:43;;;;;;;;;5.00;5.00;;;;;;;;5080921;28;46540;-75
2023/10/24 05:00:12;;;;;;;;;7.00;6.00;;;;;;;;5079051;28;45838;-75
2023/10/24 05:02:41;;;;;;;;;6.33;6.33;;;;;;;;5080480;28;45593;-75
2023/10/24 05:05:06;;;;;;;;;5.00;5.00;;;;;;;;5078916;27;47302;-74
2023/10/24 05:07:32;;;;;;;;;7.00;5.00;;;;;;;;5079094;28;48031;-75
2023/10/24 05:09:57;;;;;;;;;9.00;6.00;;;;;;;;5080392;28;45622;-75
2023/10/24 05:12:22;;;;;;;;;6.00;5.33;;;;;;;;5080865;28;45603;-76
2023/10/24 05:14:47;;;;;;;;;7.00;6.00;;;;;;;;5080122;28;45323;-75
2023/10/24 05:17:14;;;;;;;;;4.33;4.33;;;;;;;;5080298;28;45993;-74
2023/10/24 05:19:40;;;;;;;;;4.00;4.00;;;;;;;;5080713;28;45330;-75
2023/10/24 05:22:05;;;;;;;;;5.00;5.00;;;;;;;;5080659;28;45266;-75
2023/10/24 05:24:30;;;;;;;;;7.33;6.00;;;;;;;;5080501;28;45260;-75
2023/10/24 05:26:55;;;;;;;;;5.00;5.00;;;;;;;;5080433;28;45402;-75
2023/10/24 05:29:21;;;;;;;;;7.00;5.00;;;;;;;;5088425;27;45473;-74
2023/10/24 05:31:46;;;;;;;;;5.00;5.00;;;;;;;;5100917;27;45329;-75
2023/10/24 05:34:11;;;;;;;;;7.67;6.00;;;;;;;;5100761;27;45344;-75
2023/10/24 05:36:36;;;;;;;;;4.33;4.33;;;;;;;;5100670;27;46286;-75
2023/10/24 05:39:01;;;;;;;;;5.67;5.67;;;;;;;;5100921;27;45327;-76
2023/10/24 05:41:27;;;;;;;;;7.00;5.00;;;;;;;;5100928;27;45312;-77
2023/10/24 05:43:52;;;;;;;;;4.67;4.67;;;;;;;;5100722;27;45345;-76
2023/10/24 05:46:17;;;;;;;;;6.00;5.00;;;;;;;;5100305;27;45438;-78
2023/10/24 05:48:42;;;;;;;;;6.00;6.00;;;;;;;;5100629;27;45313;-78
2023/10/24 05:51:09;;;;;;;;;8.00;7.33;;;;;;;;5100744;27;45271;-77
2023/10/24 05:53:34;;;;;;;;;3.00;3.00;;;;;;;;5100485;27;45320;-77
2023/10/24 05:55:59;;;;;;;;;5.33;4.67;;;;;;;;5100373;27;46052;-77
2023/10/24 05:58:24;;;;;;;;;7.67;7.33;;;;;;;;5100581;27;45293;-76
2023/10/24 06:00:50;;;;;;;;;7.33;7.33;;;;;;;;5100395;27;45270;-77
2023/10/24 06:03:15;;;;;;;;;8.00;7.00;;;;;;;;5082606;27;47115;-78
2023/10/24 06:05:41;;;;;;;;;6.00;6.00;;;;;;;;5080664;28;46480;-79
2023/10/24 06:08:06;;;;;;;;;6.00;6.00;;;;;;;;5083604;28;45541;-79
2023/10/24 06:10:31;;;;;;;;;7.33;7.33;;;;;;;;5081308;28;45298;-78
2023/10/24 06:12:56;;;;;;;;;7.67;7.67;;;;;;;;5079871;28;45312;-78
2023/10/24 06:15:22;;;;;;;;;5.00;5.00;;;;;;;;5073598;28;45367;-77
2023/10/24 06:17:47;;;;;;;;;7.67;7.00;;;;;;;;5067736;28;45758;-77
2023/10/24 06:20:12;;;;;;;;;10.33;10.33;;;;;;;;5078402;28;45395;-79
2023/10/24 06:22:37;;;;;;;;;9.67;9.33;;;;;;;;5079511;28;45426;-79
2023/10/24 06:25:03;;;;;;;;;8.00;8.00;;;;;;;;5079692;28;45303;-79
2023/10/24 06:27:28;;;;;;;;;7.00;7.00;;;;;;;;5078366;28;45306;-79
2023/10/24 06:29:53;;;;;;;;;7.00;7.00;;;;;;;;5074804;27;45323;-78
2023/10/24 06:32:18;;;;;;;;;7.00;7.00;;;;;;;;5076157;28;45393;-79
2023/10/24 06:34:44;;;;;;;;;8.00;8.00;;;;;;;;5075891;28;46143;-78
2023/10/24 06:37:09;;;;;;;;;12.00;11.33;;;;;;;;5076113;27;45555;-79
2023/10/24 06:39:34;;;;;;;;;9.67;9.67;;;;;;;;5087428;27;45283;-77
2023/10/24 06:41:59;;;;;;;;;8.67;7.67;;;;;;;;5077492;27;45168;-79
2023/10/24 06:44:25;;;;;;;;;11.67;11.00;;;;;;;;5073899;27;45332;-79
2023/10/24 06:46:51;;;;;;;;;12.00;9.33;;;;;;;;5076718;28;45508;-78
2023/10/24 06:49:16;;;;;;;;;13.00;12.00;;;;;;;;5066692;28;45489;-78
2023/10/24 06:51:41;;;;;;;;;13.67;10.67;;;;;;;;5073531;28;45474;-78
2023/10/24 06:54:06;;;;;;;;;12.33;11.00;;;;;;;;5071205;28;46270;-78
2023/10/24 06:56:33;;;;;;;;;10.33;8.67;;;;;;;;5076785;28;45424;-75
2023/10/24 06:58:58;;;;;;;;;13.33;11.00;;;;;;;;5076712;28;45386;-75
2023/10/24 07:01:23;;;;;;;;;13.00;12.00;;;;;;;;5072412;28;45482;-75
2023/10/24 07:03:49;;;;;;;;;11.00;10.33;;;;;;;;5070723;28;45627;-76
2023/10/24 07:06:14;;;;;;;;;12.00;12.00;;;;;;;;5073173;28;45488;-75
2023/10/24 07:08:40;;;;;;;;;10.00;10.00;;;;;;;;5076028;28;45429;-76
2023/10/24 07:11:05;;;;;;;;;13.33;13.33;;;;;;;;5064777;28;45642;-75
2023/10/24 07:13:30;;;;;;;;;11.67;11.67;;;;;;;;5062254;28;45326;-76
2023/10/24 07:15:55;;;;;;;;;12.33;11.00;;;;;;;;5060647;28;45367;-75
2023/10/24 07:18:21;;;;;;;;;11.00;11.00;;;;;;;;5062235;28;45332;-75
2023/10/24 07:20:46;;;;;;;;;10.00;9.67;;;;;;;;5072417;28;45472;-74
2023/10/24 07:23:12;;;;;;;;;2.67;2.00;;;;;;;;5072400;28;46232;-75
2023/10/24 07:25:37;;;;;;;;;10.00;10.00;;;;;;;;5071920;28;45394;-75
2023/10/24 07:28:04;;;;;;;;;14.33;11.33;;;;;;;;5065167;28;45505;-75
2023/10/24 07:30:29;;;;;;;;;11.00;10.00;;;;;;;;5080663;27;46146;-76
2023/10/24 07:32:54;;;;;;;;;10.67;9.67;;;;;;;;5078553;28;46407;-75
2023/10/24 07:35:22;;;;;;;;;12.67;10.33;;;;;;;;5081995;28;45324;-75
2023/10/24 07:37:48;;;;;;;;;11.00;10.00;;;;;;;;5082380;28;45414;-77
2023/10/24 07:40:13;;;;;;;;;10.33;9.33;;;;;;;;5082012;28;45463;-75
2023/10/24 07:42:38;;;;;;;;;9.33;9.33;;;;;;;;5082252;28;46131;-74
2023/10/24 07:45:04;;;;;;;;;11.00;10.00;;;;;;;;5083580;28;45289;-76
2023/10/24 07:47:29;;;;;;;;;11.00;9.00;;;;;;;;5081920;28;45451;-77
2023/10/24 07:49:55;;;;;;;;;12.67;12.00;;;;;;;;5083012;28;46058;-78
2023/10/24 07:52:21;;;;;;;;;13.00;12.67;;;;;;;;5082192;28;46436;-77
2023/10/24 07:54:46;;;;;;;;;12.00;12.00;;;;;;;;5083119;28;45520;-76
2023/10/24 07:57:12;;;;;;;;;10.00;8.33;;;;;;;;5080360;28;45249;-76
2023/10/24 07:59:37;;;;;;;;;10.67;9.00;;;;;;;;5082039;28;45288;-76
2023/10/24 08:02:02;;;;;;;;;10.33;10.33;;;;;;;;5081752;28;45292;-74
2023/10/24 08:04:27;;;;;;;;;7.33;6.67;;;;;;;;5078373;28;45362;-75
2023/10/24 08:06:53;;;;;;;;;7.33;7.33;;;;;;;;5081667;28;45381;-75
2023/10/24 08:09:18;;;;;;;;;10.00;10.00;;;;;;;;5081763;28;45461;-75
2023/10/24 08:11:43;;;;;;;;;10.33;10.33;;;;;;;;5079229;28;45364;-76
2023/10/24 08:14:09;;;;;;;;;9.33;9.33;;;;;;;;5081974;28;45329;-76
2023/10/24 08:16:35;;;;;;;;;7.33;7.33;;;;;;;;5081948;28;45349;-75
2023/10/24 08:19:01;;;;;;;;;11.67;10.00;;;;;;;;5080525;28;47071;-75
2023/10/24 08:21:26;;;;;;;;;5.00;5.00;;;;;;;;5082842;28;45457;-75
2023/10/24 08:23:52;;;;;;;;;7.33;7.33;;;;;;;;5081965;28;45362;-75
2023/10/24 08:26:17;;;;;;;;;7.00;7.00;;;;;;;;5081830;28;45309;-75
2023/10/24 08:28:43;;;;;;;;;6.00;5.00;;;;;;;;5084386;27;45991;-76
2023/10/24 08:31:08;;;;;;;;;11.00;8.67;;;;;;;;5108819;27;47578;-76
2023/10/24 08:33:33;;;;;;;;;8.33;6.67;;;;;;;;5104207;27;45344;-76
2023/10/24 08:35:58;;;;;;;;;7.00;7.00;;;;;;;;5102390;27;45561;-75
2023/10/24 08:38:23;;;;;;;;;5.00;5.00;;;;;;;;5104612;27;45192;-75
2023/10/24 08:40:49;;;;;;;;;7.33;6.00;;;;;;;;5102182;27;45224;-75
2023/10/24 08:43:16;;;;;;;;;7.67;6.00;;;;;;;;5102650;27;45333;-76
2023/10/24 08:45:41;;;;;;;;;7.00;4.33;;;;;;;;5078183;27;45691;-75
2023/10/24 08:48:07;;;;;;;;;5.00;4.00;;;;;;;;5060695;28;45326;-75
2023/10/24 08:50:33;;;;;;;;;6.00;6.00;;;;;;;;5077276;28;45447;-75
2023/10/24 08:52:58;;;;;;;;;7.67;7.67;;;;;;;;5081162;28;45289;-75
2023/10/24 08:55:24;;;;;;;;;6.33;6.00;;;;;;;;5080752;28;45383;-76
2023/10/24 08:57:49;;;;;;;;;3.00;3.00;;;;;;;;5081277;28;45433;-75
2023/10/24 09:00:15;;;;;;;;;5.67;3.67;;;;;;;;5080854;28;45362;-75
2023/10/24 09:02:41;;;;;;;;;3.00;3.00;;;;;;;;5078719;28;45249;-74
2023/10/24 09:05:08;;;;;;;;;4.00;4.00;;;;;;;;5080763;28;45291;-75
2023/10/24 09:07:34;;;;;;;;;6.67;4.00;;;;;;;;5080594;28;45248;-76
2023/10/24 09:10:00;;;;;;;;;4.00;4.00;;;;;;;;5074763;28;46177;-76
2023/10/24 09:12:28;;;;;;;;;4.00;4.00;;;;;;;;5060650;28;45216;-75
2023/10/24 09:14:53;;;;;;;;;5.00;5.00;;;;;;;;5060430;28;45359;-75
2023/10/24 09:17:18;;;;;;;;;5.00;5.00;;;;;;;;5060040;28;45551;-75
2023/10/24 09:19:43;;;;;;;;;5.67;4.67;;;;;;;;5060479;28;46275;-75
2023/10/24 09:22:09;;;;;;;;;3.00;3.00;;;;;;;;5060711;28;45347;-74
2023/10/24 09:24:37;;;;;;;;;3.00;2.00;;;;;;;;5061453;28;45291;-75
2023/10/24 09:27:03;;;;;;;;;4.00;3.00;;;;;;;;5058986;28;46306;-74
2023/10/24 09:29:29;;;;;;;;;4.00;4.00;;;;;;;;5068073;27;46158;-75
2023/10/24 09:31:57;;;;;;;;;1.67;1.67;;;;;;;;5073208;27;45351;-74
2023/10/24 09:34:22;;;;;;;;;1.33;1.33;;;;;;;;5069823;28;45259;-75
2023/10/24 09:36:48;;;;;;;;;2.00;2.00;;;;;;;;5071219;27;45302;-75
2023/10/24 09:39:14;;;;;;;;;2.00;2.00;;;;;;;;5074084;28;46118;-75
2023/10/24 09:41:42;;;;;;;;;1.33;1.33;;;;;;;;5068886;27;45608;-74
2023/10/24 09:44:08;;;;;;;;;1.33;1.33;;;;;;;;5072273;28;45318;-75
2023/10/24 09:46:33;;;;;;;;;5.00;3.00;;;;;;;;5071360;27;45306;-80
2023/10/24 09:48:59;;;;;;;;;1.67;1.67;;;;;;;;5069256;28;46198;-77
2023/10/24 09:51:24;;;;;;;;;3.67;2.67;;;;;;;;5070688;27;45283;-76
2023/10/24 09:53:50;;;;;;;;;1.33;1.00;;;;;;;;5070317;28;45537;-76
2023/10/24 09:56:16;;;;;;;;;3.00;3.00;;;;;;;;5069691;27;45375;-75
2023/10/24 09:58:42;;;;;;;;;3.67;2.00;;;;;;;;5067505;28;47260;-75
2023/10/24 10:01:08;;;;;;;;;0.67;0.00;;;;;;;;5057929;28;45628;-76
2023/10/24 10:03:34;;;;;;;;;3.67;2.00;;;;;;;;5061530;28;45314;-75
2023/10/24 10:06:03;;;;;;;;;1.67;1.67;;;;;;;;5061713;28;45259;-76
2023/10/24 10:08:30;;;;;;;;;1.33;1.33;;;;;;;;5059574;28;45400;-77
2023/10/24 10:10:55;;;;;;;;;3.00;3.00;;;;;;;;5059757;28;45283;-77
2023/10/24 10:13:26;;;;;;;;;1.67;1.67;;;;;;;;5058431;28;45391;-77
2023/10/24 10:15:58;;;;;;;;;3.33;3.33;;;;;;;;5058295;28;46477;-78
2023/10/24 10:18:27;;;;;;;;;3.67;2.33;;;;;;;;5059514;28;45524;-76
2023/10/24 10:20:54;;;;;;;;;4.00;2.00;;;;;;;;5059368;28;45263;-76
2023/10/24 10:23:22;;;;;;;;;1.67;1.67;;;;;;;;5059572;28;45378;-75
2023/10/24 10:25:54;;;;;;;;;4.33;2.67;;;;;;;;5059360;28;45482;-75
2023/10/24 10:28:19;;;;;;;;;3.33;3.00;;;;;;;;5059844;27;45284;-75
2023/10/24 10:30:54;;;;;;;;;2.50;2.50;;;;;;;;5098476;27;45418;-76
2023/10/24 10:33:20;;;;;;;;;3.67;2.00;;;;;;;;5100166;27;45349;-76
2023/10/24 10:35:46;;;;;;;;;1.00;1.00;;;;;;;;5099867;27;45484;-76
2023/10/24 10:38:11;;;;;;;;;1.33;1.33;;;;;;;;5099766;27;45276;-77
2023/10/24 10:40:36;;;;;;;;;1.50;1.50;;;;;;;;5100030;27;45294;-75
2023/10/24 10:43:02;;;;;;;;;1.75;1.50;;;;;;;;5100090;27;45341;-76
2023/10/24 10:45:28;;;;;;;;;1.00;1.00;;;;;;;;5099888;27;45260;-76
2023/10/24 10:47:57;;;;;;;;;1.00;1.00;;;;;;;;5070144;27;46071;-76
2023/10/24 10:50:24;;;;;;;;;2.75;2.25;;;;;;;;5067872;28;45891;-77
2023/10/24 10:53:10;;;;;;;;;2.00;2.00;;;;;;;;5070280;28;45330;-77
2023/10/24 10:55:59;;;;;;;;;2.33;2.00;;;;;;;;5068865;28;45512;-76
2023/10/24 10:58:44;;;;;;;;;3.75;3.00;;;;;;;;5070128;27;45281;-77
2023/10/24 11:01:29;;;;;;;;;1.00;1.00;;;;;;;;5077835;28;45287;-75
2023/10/24 11:03:56;;;;;;;;;2.00;2.00;;;;;;;;5078595;27;45535;-75
2023/10/24 11:06:23;;;;;;;;;1.00;0.50;;;;;;;;5065841;28;45393;-75
2023/10/24 11:09:07;;;;;;;;;1.00;1.00;;;;;;;;5074806;27;45385;-76
2023/10/24 11:11:33;;;;;;;;;2.00;2.00;;;;;;;;5067696;28;45326;-75
2023/10/24 11:14:17;;;;;;;;;2.00;2.00;;;;;;;;5074022;27;45302;-75
2023/10/24 11:16:43;;;;;;;;;3.00;2.00;;;;;;;;5078358;28;45577;-75
2023/10/24 11:19:18;;;;;;;;;5.00;4.00;;;;;;;;5068205;28;47183;-77
2023/10/24 11:21:45;;;;;;;;;1.75;1.00;;;;;;;;5068617;28;45467;-79
2023/10/24 11:24:14;;;;;;;;;0.00;0.00;;;;;;;;5064552;28;45377;-78
2023/10/24 11:26:39;;;;;;;;;2.00;2.00;;;;;;;;5059444;28;45462;-76
2023/10/24 11:29:05;;;;;;;;;1.00;0.50;;;;;;;;5075462;27;45203;-76
2023/10/24 11:31:30;;;;;;;;;1.33;1.33;;;;;;;;5102520;27;45190;-76
2023/10/24 11:33:57;;;;;;;;;2.00;1.00;;;;;;;;5102904;27;45368;-75
2023/10/24 11:36:22;;;;;;;;;3.67;1.00;;;;;;;;5102718;27;45464;-76
2023/10/24 11:38:47;;;;;;;;;2.00;2.00;;;;;;;;5074461;27;47012;-75
2023/10/24 11:41:12;;;;;;;;;3.00;1.00;;;;;;;;5070448;28;45307;-77
2023/10/24 11:43:38;;;;;;;;;5.00;2.00;;;;;;;;5071806;28;45440;-76
2023/10/24 11:46:03;;;;;;;;;0.50;0.25;;;;;;;;5074145;28;46241;-76
2023/10/24 11:48:28;;;;;;;;;0.75;0.75;;;;;;;;5082641;28;46085;-77
2023/10/24 11:50:53;;;;;;;;;0.75;0.75;;;;;;;;5081512;28;45481;-75
2023/10/24 11:53:22;;;;;;;;;2.00;1.00;;;;;;;;5082194;28;45248;-76
2023/10/24 11:55:48;;;;;;;;;1.00;1.00;;;;;;;;5082186;28;45495;-75
2023/10/24 11:58:13;;;;;;;;;1.67;1.67;;;;;;;;5080433;28;47556;-75
2023/10/24 12:00:40;;;;;;;;;1.50;1.50;;;;;;;;5081771;28;45506;-76
2023/10/24 12:03:05;;;;;;;;;1.50;1.50;;;;;;;;5082034;28;45164;-76
2023/10/24 12:05:31;;;;;;;;;2.00;2.00;;;;;;;;5081400;28;45472;-76
2023/10/24 12:07:57;;;;;;;;;1.75;1.00;;;;;;;;5076837;28;48123;-76
2023/10/24 12:10:22;;;;;;;;;1.50;1.50;;;;;;;;5072351;28;45267;-77
2023/10/24 12:12:47;;;;;;;;;4.00;2.75;;;;;;;;5081871;28;45325;-76
2023/10/24 12:15:14;;;;;;;;;1.00;1.00;;;;;;;;5078260;28;45448;-77
2023/10/24 12:17:42;;;;;;;;;2.00;2.00;;;;;;;;5072317;28;45365;-76
2023/10/24 12:20:08;;;;;;;;;2.75;1.25;;;;;;;;5080173;28;45198;-76
2023/10/24 12:22:33;;;;;;;;;2.00;2.00;;;;;;;;5080232;28;45259;-75
2023/10/24 12:24:58;;;;;;;;;2.25;1.50;;;;;;;;5080253;28;45821;-76
2023/10/24 12:27:23;;;;;;;;;1.00;1.00;;;;;;;;5070908;28;45411;-76
2023/10/24 12:29:49;;;;;;;;;0.75;0.75;;;;;;;;5079098;27;45353;-76
2023/10/24 12:32:14;;;;;;;;;1.00;1.00;;;;;;;;5079979;28;45272;-76
2023/10/24 12:34:39;;;;;;;;;2.00;2.00;;;;;;;;5077844;28;45584;-76
2023/10/24 12:37:04;;;;;;;;;2.00;0.75;;;;;;;;5068837;28;45512;-75
2023/10/24 12:39:29;;;;;;;;;1.00;1.00;;;;;;;;5070845;28;45290;-76
2023/10/24 12:41:54;;;;;;;;;2.00;0.75;;;;;;;;5069175;28;45264;-76
2023/10/24 12:44:20;;;;;;;;;1.33;1.33;;;;;;;;5075701;28;45238;-76
2023/10/24 12:46:45;;;;;;;;;3.00;1.50;;;;;;;;5080670;28;45430;-75
2023/10/24 12:49:10;;;;;;;;;0.00;0.00;;;;;;;;5080492;28;45443;-76
2023/10/24 12:51:35;;;;;;;;;2.00;2.00;;;;;;;;5080235;28;45325;-75
2023/10/24 12:54:00;;;;;;;;;2.00;1.00;;;;;;;;5079659;28;47089;-76
2023/10/24 12:56:26;;;;;;;;;2.00;2.00;;;;;;;;5079948;28;46839;-73
2023/10/24 12:58:51;;;;;;;;;1.00;1.00;;;;;;;;5081079;28;45333;-73
2023/10/24 13:01:16;;;;;;;;;1.75;1.00;;;;;;;;5079482;28;45358;-73
2023/10/24 13:03:41;;;;;;;;;1.00;1.00;;;;;;;;5080802;28;45331;-73
2023/10/24 13:06:07;;;;;;;;;1.25;1.25;;;;;;;;5080443;28;47134;-73
2023/10/24 13:08:32;;;;;;;;;0.50;0.50;;;;;;;;5080828;28;45333;-73
2023/10/24 13:10:57;;;;;;;;;1.50;1.50;;;;;;;;5080993;28;45292;-72
2023/10/24 13:13:23;;;;;;;;;1.25;1.25;;;;;;;;5080534;28;45941;-73
2023/10/24 13:15:49;;;;;;;;;3.00;2.75;;;;;;;;5080548;28;45297;-72
2023/10/24 13:18:14;;;;;;;;;1.75;1.75;;;;;;;;5080647;28;45358;-71
2023/10/24 13:20:39;;;;;;;;;2.75;1.25;;;;;;;;5080749;28;45301;-72
2023/10/24 13:23:04;;;;;;;;;1.00;0.00;;;;;;;;5080659;28;45358;-73
2023/10/24 13:25:29;;;;;;;;;1.00;1.00;;;;;;;;5080559;28;45436;-73
2023/10/24 13:27:54;;;;;;;;;1.00;1.00;;;;;;;;5080510;28;45350;-72
2023/10/24 13:30:20;;;;;;;;;1.00;0.00;;;;;;;;5097781;27;45306;-73
2023/10/24 13:32:45;;;;;;;;;0.50;0.50;;;;;;;;5100759;27;45621;-74
2023/10/24 13:35:10;;;;;;;;;1.00;1.00;;;;;;;;5100905;27;45383;-74
2023/10/24 13:37:35;;;;;;;;;2.50;1.50;;;;;;;;5100754;27;45325;-75
2023/10/24 13:40:01;;;;;;;;;1.00;1.00;;;;;;;;5101078;27;45354;-75
2023/10/24 13:42:26;;;;;;;;;1.00;1.00;;;;;;;;5100907;27;45240;-76
2023/10/24 13:44:51;;;;;;;;;3.50;1.75;;;;;;;;5089726;27;45325;-75
2023/10/24 13:47:17;;;;;;;;;0.00;0.00;;;;;;;;5059661;28;45310;-75
2023/10/24 13:49:42;;;;;;;;;0.50;0.00;;;;;;;;5059112;28;45157;-75
2023/10/24 13:52:07;;;;;;;;;1.00;1.00;;;;;;;;5058423;28;46432;-75
2023/10/24 13:54:32;;;;;;;;;1.75;1.75;;;;;;;;5059767;28;45286;-75
2023/10/24 13:56:57;;;;;;;;;3.25;0.50;;;;;;;;5059975;28;45156;-76
2023/10/24 13:59:23;;;;;;;;;0.50;0.50;;;;;;;;5058542;28;45271;-75
2023/10/24 14:01:48;;;;;;;;;0.00;0.00;;;;;;;;5059537;28;45304;-75
2023/10/24 14:04:14;;;;;;;;;1.00;1.00;;;;;;;;5057946;28;47997;-75
2023/10/24 14:06:39;;;;;;;;;1.75;1.00;;;;;;;;5059751;28;45231;-75
2023/10/24 14:09:04;;;;;;;;;0.00;0.00;;;;;;;;5059905;28;45294;-76
2023/10/24 14:11:29;;;;;;;;;1.00;0.25;;;;;;;;5059809;28;45588;-75
2023/10/24 14:13:55;;;;;;;;;0.00;0.00;;;;;;;;5058656;28;47872;-75
2023/10/24 14:16:20;;;;;;;;;1.00;1.00;;;;;;;;5064210;28;45232;-75
2023/10/24 14:18:45;;;;;;;;;1.00;1.00;;;;;;;;5078922;28;45166;-75
2023/10/24 14:21:10;;;;;;;;;0.00;0.00;;;;;;;;5079127;28;46263;-75
2023/10/24 14:23:36;;;;;;;;;2.25;0.25;;;;;;;;5080157;28;46333;-75
2023/10/24 14:26:02;;;;;;;;;0.50;0.50;;;;;;;;5079775;28;45371;-76
2023/10/24 14:28:27;;;;;;;;;1.00;1.00;;;;;;;;5079597;27;45810;-75